createdAt,value
2022-12-18T00:00:53.189Z,13.40
2022-12-18T00:03:23.298Z,14.65
2022-12-18T00:05:54.832Z,14.95
2022-12-18T00:08:25.008Z,16.55
2022-12-18T00:11:00.527Z,15.32
2022-12-18T00:13:32.868Z,15.30
2022-12-18T00:16:06.403Z,16.63
2022-12-18T00:18:37.279Z,15.15
2022-12-18T00:21:10.372Z,17.73
2022-12-18T00:23:43.659Z,16.95
2022-12-18T00:26:18.351Z,15.57
2022-12-18T00:28:49.822Z,15.35
2022-12-18T00:31:21.979Z,15.50
2022-12-18T00:33:55.471Z,15.95
2022-12-18T00:36:27.471Z,15.82
2022-12-18T00:41:43.181Z,15.75
2022-12-18T00:44:15.996Z,14.07
2022-12-18T00:46:47.225Z,14.05
2022-12-18T00:49:17.630Z,15.32
2022-12-18T00:51:47.888Z,15.23
2022-12-18T00:54:18.935Z,15.27
2022-12-18T00:56:51.479Z,16.65
2022-12-18T00:59:22.425Z,15.88
2022-12-18T01:01:52.821Z,15.63
2022-12-18T01:04:23.191Z,15.60
2022-12-18T01:06:53.361Z,17.15
2022-12-18T01:09:23.480Z,15.90
2022-12-18T01:11:56.063Z,17.08
2022-12-18T01:14:26.238Z,15.93
2022-12-18T01:16:56.189Z,16.10
2022-12-18T01:19:27.692Z,15.98
2022-12-18T01:21:57.691Z,15.93
2022-12-18T01:24:27.830Z,13.80
2022-12-18T01:27:00.740Z,15.15
2022-12-18T01:29:30.778Z,15.77
2022-12-18T01:32:01.019Z,16.35
2022-12-18T01:34:31.075Z,14.35
2022-12-18T01:37:01.164Z,13.05
2022-12-18T01:39:31.189Z,12.50
2022-12-18T01:42:06.906Z,7.55
2022-12-18T01:45:25.952Z,14.02
2022-12-18T01:47:58.704Z,14.50
2022-12-18T01:50:32.410Z,13.80
2022-12-18T01:53:05.922Z,12.77
2022-12-18T01:55:40.038Z,12.88
2022-12-18T01:58:12.762Z,13.13
2022-12-18T02:00:42.904Z,9.95
2022-12-18T02:03:13.138Z,10.85
2022-12-18T02:05:50.201Z,13.32
2022-12-18T02:08:24.707Z,13.55
2022-12-18T02:11:06.997Z,12.07
2022-12-18T02:13:44.871Z,12.65
2022-12-18T02:16:23.143Z,11.60
2022-12-18T02:18:57.999Z,10.38
2022-12-18T02:21:36.803Z,11.65
2022-12-18T02:24:21.445Z,10.48
2022-12-18T02:26:57.047Z,14.23
2022-12-18T02:29:29.987Z,12.27
2022-12-18T02:32:02.677Z,13.13
2022-12-18T02:34:35.638Z,8.80
2022-12-18T02:37:08.842Z,13.07
2022-12-18T02:39:42.697Z,9.82
2022-12-18T02:42:16.742Z,12.77
2022-12-18T02:44:48.528Z,10.07
2022-12-18T02:47:24.096Z,8.65
2022-12-18T02:50:01.797Z,11.55
2022-12-18T02:52:38.706Z,12.32
2022-12-18T02:55:21.404Z,12.18
2022-12-18T02:57:59.499Z,9.98
2022-12-18T03:00:35.682Z,12.10
2022-12-18T03:03:11.438Z,12.45
2022-12-18T03:05:45.461Z,12.77
2022-12-18T03:08:21.461Z,12.57
2022-12-18T03:10:57.580Z,9.05
2022-12-18T03:13:35.733Z,11.43
2022-12-18T03:16:09.892Z,10.60
2022-12-18T03:18:42.578Z,11.32
2022-12-18T03:21:15.669Z,8.60
2022-12-18T03:23:53.187Z,11.48
2022-12-18T03:26:26.207Z,11.73
2022-12-18T03:29:03.408Z,11.00
2022-12-18T03:31:36.544Z,10.98
2022-12-18T03:34:12.397Z,11.65
2022-12-18T03:36:42.511Z,10.90
2022-12-18T03:39:12.549Z,11.73
2022-12-18T03:41:49.123Z,11.63
2022-12-18T03:44:30.307Z,11.02
2022-12-18T03:47:09.248Z,9.98
2022-12-18T03:49:44.560Z,11.40
2022-12-18T03:52:21.928Z,9.48
2022-12-18T03:54:52.295Z,10.35
2022-12-18T03:57:25.571Z,8.95
2022-12-18T04:00:01.219Z,11.30
2022-12-18T04:02:32.758Z,8.68
2022-12-18T04:05:06.860Z,11.15
2022-12-18T04:07:37.249Z,10.60
2022-12-18T04:10:10.056Z,10.77
2022-12-18T04:12:41.957Z,12.48
2022-12-18T04:15:15.957Z,10.15
2022-12-18T04:17:51.902Z,10.73
2022-12-18T04:20:22.339Z,11.77
2022-12-18T04:22:52.614Z,11.75
2022-12-18T04:25:23.052Z,12.02
2022-12-18T04:27:53.151Z,9.82
2022-12-18T04:30:26.049Z,8.45
2022-12-18T04:32:55.986Z,12.20
2022-12-18T04:35:26.699Z,10.38
2022-12-18T04:37:56.661Z,10.40
2022-12-18T04:40:26.642Z,10.95
2022-12-18T04:42:56.885Z,10.63
2022-12-18T04:45:29.515Z,7.65
2022-12-18T04:48:01.567Z,12.65
2022-12-18T04:50:31.890Z,10.82
2022-12-18T04:53:02.190Z,7.00
2022-12-18T04:55:32.562Z,10.90
2022-12-18T04:58:02.565Z,9.63
2022-12-18T05:00:35.159Z,10.73
2022-12-18T05:03:05.856Z,9.93
2022-12-18T05:05:36.069Z,9.77
2022-12-18T05:08:06.153Z,9.85
2022-12-18T05:10:38.289Z,9.50
2022-12-18T05:13:08.560Z,7.13
2022-12-18T05:15:41.167Z,10.50
2022-12-18T05:18:11.427Z,10.52
2022-12-18T05:20:41.385Z,11.88
2022-12-18T05:23:11.382Z,11.77
2022-12-18T05:25:41.316Z,9.88
2022-12-18T05:28:11.737Z,7.60
2022-12-18T05:30:44.318Z,10.48
2022-12-18T05:33:14.429Z,11.07
2022-12-18T05:35:44.383Z,10.07
2022-12-18T05:38:14.372Z,8.30
2022-12-18T05:40:47.115Z,9.57
2022-12-18T05:43:21.214Z,9.25
2022-12-18T05:45:55.183Z,9.40
2022-12-18T05:48:25.873Z,7.95
2022-12-18T05:50:56.133Z,8.32
2022-12-18T05:53:26.111Z,7.18
2022-12-18T05:55:56.073Z,8.23
2022-12-18T05:58:26.095Z,6.50
2022-12-18T06:00:58.711Z,6.95
2022-12-18T06:03:33.729Z,8.65
2022-12-18T06:06:04.058Z,6.97
2022-12-18T06:08:34.167Z,8.65
2022-12-18T06:11:04.502Z,10.52
2022-12-18T06:13:34.512Z,8.23
2022-12-18T06:16:09.531Z,12.73
2022-12-18T06:18:39.627Z,9.30
2022-12-18T06:21:09.923Z,10.07
2022-12-18T06:23:40.503Z,9.25
2022-12-18T06:26:12.396Z,8.23
2022-12-18T06:28:42.471Z,9.20
2022-12-18T06:31:16.120Z,8.48
2022-12-18T06:33:48.742Z,8.60
2022-12-18T06:36:18.806Z,8.10
2022-12-18T06:38:49.110Z,6.53
2022-12-18T06:41:21.237Z,8.32
2022-12-18T06:43:54.523Z,8.75
2022-12-18T06:46:29.824Z,7.03
2022-12-18T06:48:59.833Z,8.48
2022-12-18T06:51:30.766Z,8.38
2022-12-18T06:54:01.049Z,8.00
2022-12-18T06:56:31.279Z,7.75
2022-12-18T06:59:01.301Z,8.82
2022-12-18T07:01:34.193Z,6.10
2022-12-18T07:04:04.227Z,7.07
2022-12-18T07:06:34.187Z,8.98
2022-12-18T07:09:04.323Z,8.50
2022-12-18T07:11:37.016Z,8.35
2022-12-18T07:14:07.403Z,8.50
2022-12-18T07:16:40.212Z,7.78
2022-12-18T07:19:10.316Z,8.52
2022-12-18T07:21:40.283Z,8.13
2022-12-18T07:24:11.397Z,7.88
2022-12-18T07:26:41.832Z,6.15
2022-12-18T07:29:11.953Z,8.75
2022-12-18T07:31:44.649Z,8.77
2022-12-18T07:34:15.747Z,9.43
2022-12-18T07:36:46.015Z,8.90
2022-12-18T07:39:16.635Z,9.27
2022-12-18T07:42:06.734Z,8.75
2022-12-18T07:44:36.871Z,6.80
2022-12-18T07:47:12.158Z,7.57
2022-12-18T07:49:42.494Z,10.48
2022-12-18T07:52:13.421Z,8.35
2022-12-18T07:54:44.105Z,8.77
2022-12-18T07:57:41.342Z,9.13
2022-12-18T08:00:04.068Z,9.98
2022-12-18T08:02:37.548Z,9.18
2022-12-18T08:05:08.944Z,10.02
2022-12-18T08:07:38.961Z,8.60
2022-12-18T08:10:10.506Z,9.30
2022-12-18T08:12:40.665Z,8.40
2022-12-18T08:15:11.958Z,9.07
2022-12-18T08:17:44.507Z,9.13
2022-12-18T08:20:16.216Z,7.82
2022-12-18T08:22:46.300Z,7.93
2022-12-18T08:25:16.337Z,7.57
2022-12-18T08:27:46.363Z,7.15
2022-12-18T08:30:17.281Z,7.57
2022-12-18T08:32:50.433Z,7.70
2022-12-18T08:35:20.531Z,3.85
2022-12-18T08:37:50.746Z,7.30
2022-12-18T08:40:20.761Z,7.65
2022-12-18T08:43:03.340Z,7.40
2022-12-18T08:45:33.493Z,6.10
2022-12-18T08:48:06.297Z,10.52
2022-12-18T08:50:36.366Z,8.27
2022-12-18T08:53:06.397Z,7.90
2022-12-18T08:55:36.557Z,7.60
2022-12-18T08:58:06.546Z,7.80
2022-12-18T09:00:37.716Z,7.75
2022-12-18T09:03:15.600Z,7.57
2022-12-18T09:05:45.856Z,7.30
2022-12-18T09:08:15.888Z,7.22
2022-12-18T09:10:47.440Z,7.88
2022-12-18T09:13:18.256Z,7.93
2022-12-18T09:15:50.671Z,7.80
2022-12-18T09:18:25.200Z,8.20
2022-12-18T09:20:55.660Z,8.43
2022-12-18T09:23:25.955Z,8.18
2022-12-18T09:26:02.331Z,7.38
2022-12-18T09:28:32.550Z,7.10
2022-12-18T09:31:02.728Z,7.20
2022-12-18T09:33:35.408Z,7.85
2022-12-18T09:36:07.772Z,7.32
2022-12-18T09:38:39.032Z,6.25
2022-12-18T09:41:21.890Z,9.77
2022-12-18T09:43:55.839Z,8.95
2022-12-18T09:46:31.374Z,7.53
2022-12-18T09:49:18.941Z,6.05
2022-12-18T09:51:52.991Z,8.13
2022-12-18T09:54:27.894Z,6.97
2022-12-18T09:56:58.373Z,6.07
2022-12-18T09:59:31.191Z,7.97
2022-12-18T10:02:01.692Z,7.57
2022-12-18T10:04:35.819Z,6.03
2022-12-18T10:07:12.240Z,7.32
2022-12-18T10:09:53.156Z,6.72
2022-12-18T10:12:31.014Z,7.00
2022-12-18T10:15:09.461Z,6.30
2022-12-18T10:17:49.816Z,6.57
2022-12-18T10:20:29.727Z,7.82
2022-12-18T10:23:05.805Z,6.80
2022-12-18T10:25:43.259Z,8.27
2022-12-18T10:28:16.646Z,8.13
2022-12-18T10:30:47.727Z,7.82
2022-12-18T10:33:20.406Z,7.43
2022-12-18T10:35:54.929Z,7.25
2022-12-18T10:38:28.283Z,8.15
2022-12-18T10:41:00.141Z,7.40
2022-12-18T10:43:31.979Z,4.63
2022-12-18T10:51:12.699Z,4.93
2022-12-18T10:53:46.221Z,5.85
2022-12-18T10:56:16.487Z,7.30
2022-12-18T10:58:58.675Z,6.80
2022-12-18T11:01:29.470Z,7.63
2022-12-18T11:04:05.533Z,4.20
2022-12-18T11:06:38.219Z,7.53
2022-12-18T11:09:23.081Z,7.53
2022-12-18T11:11:54.591Z,6.63
2022-12-18T11:14:27.836Z,6.47
2022-12-18T11:22:31.470Z,7.05
2022-12-18T11:25:35.413Z,7.18
2022-12-18T11:27:56.493Z,7.40
2022-12-18T11:30:29.185Z,6.57
2022-12-18T11:33:05.620Z,6.43
2022-12-18T11:35:51.683Z,5.88
2022-12-18T11:38:29.270Z,6.57
2022-12-18T11:41:02.976Z,5.53
2022-12-18T11:43:37.607Z,6.43
2022-12-18T11:46:16.121Z,6.80
2022-12-18T11:48:56.017Z,5.95
2022-12-18T11:51:32.200Z,6.05
2022-12-18T11:54:05.369Z,5.60
2022-12-18T11:56:39.430Z,6.93
2022-12-18T11:59:17.680Z,7.10
2022-12-18T12:04:42.386Z,6.97
2022-12-18T12:07:26.595Z,5.75
2022-12-18T12:10:07.682Z,5.80
2022-12-18T12:12:51.192Z,6.50
2022-12-18T12:15:32.715Z,6.63
2022-12-18T12:18:12.213Z,5.03
2022-12-18T12:20:53.534Z,6.88
2022-12-18T12:23:30.525Z,5.45
2022-12-18T12:26:08.972Z,6.28
2022-12-18T12:31:38.142Z,5.88
2022-12-18T12:34:17.423Z,6.32
2022-12-18T12:36:58.909Z,6.55
2022-12-18T12:39:33.701Z,7.40
2022-12-18T12:42:20.368Z,6.15
2022-12-18T12:47:47.131Z,6.55
2022-12-18T12:50:20.651Z,6.18
2022-12-18T12:52:54.530Z,6.93
2022-12-18T12:55:26.777Z,5.25
2022-12-18T12:58:09.579Z,6.15
2022-12-18T13:00:47.753Z,6.78
2022-12-18T13:03:34.984Z,4.90
2022-12-18T13:06:11.870Z,7.13
2022-12-18T13:08:58.263Z,7.57
2022-12-18T13:11:59.349Z,8.30
2022-12-18T13:13:43.290Z,5.53
2022-12-18T13:14:37.393Z,7.47
2022-12-18T13:17:33.887Z,9.57
2022-12-18T13:20:17.060Z,8.60
2022-12-18T13:22:49.965Z,7.18
2022-12-18T13:25:35.224Z,3.92
2022-12-18T13:28:12.798Z,8.63
2022-12-18T13:30:55.630Z,7.00
2022-12-18T13:34:24.364Z,7.53
2022-12-18T13:36:41.638Z,7.32
2022-12-18T13:39:38.404Z,6.05
2022-12-18T13:42:51.066Z,6.72
2022-12-18T13:45:40.987Z,7.60
2022-12-18T13:48:25.226Z,6.70
2022-12-18T13:51:04.529Z,6.85
2022-12-18T13:53:40.405Z,5.85
2022-12-18T13:56:19.824Z,8.05
2022-12-18T13:59:14.853Z,6.68
2022-12-18T14:01:55.201Z,5.10
2022-12-18T14:04:31.097Z,7.82
2022-12-18T14:07:05.720Z,7.70
2022-12-18T14:09:47.499Z,7.50
2022-12-18T14:12:33.737Z,7.35
2022-12-18T14:15:04.570Z,6.93
2022-12-18T14:17:35.950Z,8.32
2022-12-18T14:20:18.167Z,12.48
2022-12-18T14:22:49.611Z,14.07
2022-12-18T14:25:23.331Z,9.20
2022-12-18T14:27:56.350Z,7.20
2022-12-18T14:30:32.906Z,7.00
2022-12-18T14:33:13.075Z,9.85
2022-12-18T14:35:50.797Z,8.07
2022-12-18T14:38:42.016Z,9.75
2022-12-18T14:41:16.344Z,8.02
2022-12-18T14:43:48.349Z,7.25
2022-12-18T14:46:34.048Z,7.03
2022-12-18T14:49:06.759Z,8.85
2022-12-18T14:51:40.685Z,6.70
2022-12-18T14:54:19.984Z,6.38
2022-12-18T14:56:52.312Z,8.23
2022-12-18T14:59:25.323Z,7.82
2022-12-18T15:02:03.516Z,8.68
2022-12-18T15:04:40.096Z,8.10
2022-12-18T15:07:20.935Z,5.88
2022-12-18T15:10:07.744Z,7.25
2022-12-18T15:12:39.743Z,7.97
2022-12-18T15:15:25.073Z,8.38
2022-12-18T15:18:01.522Z,6.85
2022-12-18T15:20:34.731Z,8.98
2022-12-18T15:23:07.626Z,9.65
2022-12-18T15:25:40.898Z,9.20
2022-12-18T15:28:23.159Z,9.23
2022-12-18T15:31:23.977Z,9.80
2022-12-18T15:34:16.634Z,8.60
2022-12-18T15:36:46.911Z,8.45
2022-12-18T15:39:19.541Z,9.45
2022-12-18T15:42:01.980Z,7.97
2022-12-18T15:44:32.238Z,9.70
2022-12-18T15:47:02.402Z,9.30
2022-12-18T15:49:32.576Z,8.35
2022-12-18T15:52:05.340Z,9.00
2022-12-18T15:54:50.392Z,8.45
2022-12-18T15:57:29.463Z,7.72
2022-12-18T16:00:00.308Z,12.27
2022-12-18T16:02:31.296Z,11.43
2022-12-18T16:05:01.507Z,8.35
2022-12-18T16:07:31.562Z,11.10
2022-12-18T16:10:04.222Z,6.93
2022-12-18T16:12:34.543Z,10.57
2022-12-18T16:15:06.823Z,9.00
2022-12-18T16:17:37.517Z,9.98
2022-12-18T16:20:09.565Z,8.60
2022-12-18T16:22:39.620Z,6.30
2022-12-18T16:25:20.467Z,10.73
2022-12-18T16:27:50.921Z,9.80
2022-12-18T16:30:28.319Z,10.32
2022-12-18T16:32:59.685Z,8.73
2022-12-18T16:35:30.588Z,9.70
2022-12-18T16:38:00.570Z,8.60
2022-12-18T16:40:56.476Z,9.75
2022-12-18T16:43:26.466Z,9.02
2022-12-18T16:45:58.425Z,9.65
2022-12-18T16:48:28.462Z,9.45
2022-12-18T16:53:34.328Z,6.95
2022-12-18T16:56:08.230Z,10.18
2022-12-18T16:58:38.689Z,11.18
2022-12-18T17:01:11.829Z,8.38
2022-12-18T17:06:14.463Z,6.97
2022-12-18T17:08:45.099Z,10.50
2022-12-18T17:11:17.893Z,9.38
2022-12-18T17:13:48.411Z,7.40
2022-12-18T17:16:18.911Z,9.02
2022-12-18T17:18:48.937Z,9.13
2022-12-18T17:21:19.709Z,7.93
2022-12-18T17:23:49.948Z,5.72
2022-12-18T17:26:22.643Z,9.82
2022-12-18T17:28:52.659Z,7.70
2022-12-18T17:31:26.144Z,9.35
2022-12-18T17:33:56.694Z,8.82
2022-12-18T17:36:28.656Z,9.88
2022-12-18T17:39:00.184Z,7.60
2022-12-18T17:41:34.178Z,10.43
2022-12-18T17:44:07.121Z,8.15
2022-12-18T17:46:37.540Z,9.82
2022-12-18T17:49:07.665Z,10.90
2022-12-18T17:51:37.845Z,9.82
2022-12-18T17:54:08.222Z,8.95
2022-12-18T17:56:42.131Z,8.90
2022-12-18T17:59:12.600Z,11.90
2022-12-18T18:01:45.577Z,8.60
2022-12-18T18:04:16.124Z,12.02
2022-12-18T18:06:46.699Z,10.50
2022-12-18T18:09:17.270Z,10.23
2022-12-18T18:12:02.438Z,10.95
2022-12-18T18:14:33.186Z,13.85
2022-12-18T18:17:04.990Z,11.45
2022-12-18T18:19:36.369Z,12.05
2022-12-18T18:22:06.932Z,10.77
2022-12-18T18:24:37.341Z,8.55
2022-12-18T18:27:09.989Z,10.48
2022-12-18T18:29:40.207Z,10.57
2022-12-18T18:32:10.333Z,11.75
2022-12-18T18:34:40.459Z,8.20
2022-12-18T18:37:10.836Z,12.13
2022-12-18T18:39:41.057Z,11.43
2022-12-18T18:42:13.708Z,12.60
2022-12-18T18:44:48.757Z,10.43
2022-12-18T18:47:19.568Z,12.27
2022-12-18T18:49:49.554Z,10.95
2022-12-18T18:52:19.604Z,11.55
2022-12-18T18:55:12.194Z,11.00
2022-12-18T18:57:44.243Z,8.45
2022-12-18T19:00:16.319Z,11.70
2022-12-18T19:02:46.911Z,12.23
2022-12-18T19:05:17.062Z,7.32
2022-12-18T19:07:47.859Z,11.57
2022-12-18T19:10:18.268Z,7.78
2022-12-18T19:13:03.759Z,8.30
2022-12-18T19:15:34.339Z,11.70
2022-12-18T19:18:04.487Z,11.40
2022-12-18T19:20:34.711Z,10.70
2022-12-18T19:23:05.146Z,11.10
2022-12-18T19:25:38.452Z,9.80
2022-12-18T19:28:21.869Z,8.98
2022-12-18T19:30:58.853Z,11.38
2022-12-18T19:33:45.890Z,10.63
2022-12-18T19:36:20.269Z,9.32
2022-12-18T19:38:51.285Z,10.20
2022-12-18T19:41:22.780Z,9.40
2022-12-18T19:43:55.856Z,11.00
2022-12-18T19:46:26.630Z,11.15
2022-12-18T19:48:57.002Z,10.20
2022-12-18T19:51:28.751Z,12.10
2022-12-18T19:54:01.396Z,12.02
2022-12-18T19:56:34.101Z,9.20
2022-12-18T19:59:08.004Z,9.30
2022-12-18T20:01:38.160Z,9.68
2022-12-18T20:04:09.180Z,11.60
2022-12-18T20:06:49.414Z,12.27
2022-12-18T20:09:20.457Z,11.43
2022-12-18T20:11:52.207Z,9.75
2022-12-18T20:14:25.330Z,12.40
2022-12-18T20:16:57.924Z,12.50
2022-12-18T20:19:31.763Z,15.10
2022-12-18T20:22:04.428Z,11.73
2022-12-18T20:24:34.473Z,11.77
2022-12-18T20:27:05.636Z,12.38
2022-12-18T20:29:40.646Z,15.35
2022-12-18T20:32:10.749Z,11.57
2022-12-18T20:34:41.044Z,6.93
2022-12-18T20:37:12.436Z,7.90
2022-12-18T20:39:43.443Z,11.43
2022-12-18T20:42:14.372Z,7.95
2022-12-18T20:44:47.132Z,10.73
2022-12-18T20:47:17.152Z,11.55
2022-12-18T20:49:47.886Z,10.32
2022-12-18T20:52:17.949Z,11.18
2022-12-18T20:54:49.541Z,11.38
2022-12-18T20:57:19.813Z,11.32
2022-12-18T20:59:52.449Z,10.80
2022-12-18T21:02:22.868Z,10.93
2022-12-18T21:04:53.730Z,10.52
2022-12-18T21:07:23.703Z,12.45
2022-12-18T21:09:53.709Z,10.73
2022-12-18T21:12:42.846Z,13.80
2022-12-18T21:15:28.370Z,11.43
2022-12-18T21:17:58.822Z,11.63
2022-12-18T21:20:29.199Z,11.88
2022-12-18T21:23:05.831Z,10.68
2022-12-18T21:25:47.015Z,11.18
2022-12-18T21:28:19.964Z,11.45
2022-12-18T21:30:52.918Z,12.32
2022-12-18T21:33:23.008Z,11.93
2022-12-18T21:35:53.016Z,10.02
2022-12-18T21:38:23.073Z,12.18
2022-12-18T21:40:53.530Z,11.60
2022-12-18T21:43:35.961Z,13.60
2022-12-18T21:46:08.878Z,11.27
2022-12-18T21:48:39.243Z,11.10
2022-12-18T21:51:09.525Z,12.05
2022-12-18T21:53:39.622Z,10.93
2022-12-18T21:56:10.224Z,11.48
2022-12-18T22:01:37.309Z,8.95
2022-12-18T22:04:08.012Z,10.02
2022-12-18T22:06:38.186Z,13.50
2022-12-18T22:09:09.301Z,9.80
2022-12-18T22:11:39.500Z,9.27
2022-12-18T22:14:09.848Z,12.25
2022-12-18T22:16:42.644Z,12.25
2022-12-18T22:19:14.885Z,11.45
2022-12-18T22:21:46.647Z,11.15
2022-12-18T22:24:18.792Z,11.93
2022-12-18T22:26:50.662Z,11.68
2022-12-18T22:29:35.201Z,10.15
2022-12-18T22:32:08.643Z,10.82
2022-12-18T22:34:41.302Z,8.82
2022-12-18T22:37:13.257Z,10.52
2022-12-18T22:39:43.387Z,11.65
2022-12-18T22:42:13.423Z,10.45
2022-12-18T22:44:43.478Z,9.20
2022-12-18T22:47:16.184Z,11.35
2022-12-18T22:49:46.416Z,11.63
2022-12-18T22:52:16.455Z,11.15
2022-12-18T22:54:48.898Z,14.40
2022-12-18T22:57:18.966Z,9.88
2022-12-18T22:59:49.338Z,11.02
2022-12-18T23:02:22.410Z,10.80
2022-12-18T23:04:52.593Z,10.15
2022-12-18T23:07:23.106Z,12.40
2022-12-18T23:10:00.803Z,9.95
2022-12-18T23:12:31.340Z,9.77
2022-12-18T23:15:03.048Z,12.00
2022-12-18T23:17:35.700Z,12.60
2022-12-18T23:20:05.663Z,8.30
2022-12-18T23:22:35.677Z,11.43
2022-12-18T23:25:05.694Z,12.20
2022-12-18T23:27:35.913Z,9.88
2022-12-18T23:30:06.048Z,11.82
2022-12-18T23:32:38.865Z,8.23
2022-12-18T23:35:10.155Z,9.57
2022-12-18T23:37:59.495Z,10.00
2022-12-18T23:40:30.253Z,11.30
2022-12-18T23:43:01.435Z,11.25
2022-12-18T23:45:31.513Z,13.20
2022-12-18T23:48:04.149Z,11.30
2022-12-18T23:50:34.102Z,10.27
2022-12-18T23:53:05.539Z,11.13
2022-12-18T23:58:19.597Z,9.13
